Time;durP1;ratioP1;P1;durP2;ratioP2;P2;SDS_P1;SDS_P2;PMS_P1;PMS_P2;Temp;Humidity;BMP_temperature;BMP_pressure;BME280_temperature;BME280_humidity;BME280_pressure;Samples;Min_cycle;Max_cycle;Signal;HPM_P1;HPM_P2
2021/07/22 00:00:18;;;;;;;17.38;7.60;;;19.90;80.10;;;;;;5037821;28;20177;-80
2021/07/22 00:02:45;;;;;;;12.23;6.47;;;19.80;79.90;;;;;;5038135;28;20563;-81
2021/07/22 00:05:11;;;;;;;12.85;7.25;;;19.70;79.60;;;;;;5038023;28;20177;-81
2021/07/22 00:07:37;;;;;;;13.27;7.13;;;19.70;80.10;;;;;;5037787;28;20200;-80
2021/07/22 00:10:03;;;;;;;14.02;6.90;;;19.70;80.20;;;;;;5037331;28;20169;-81
2021/07/22 00:12:29;;;;;;;14.45;7.90;;;19.60;80.60;;;;;;5038369;28;20224;-81
2021/07/22 00:14:54;;;;;;;12.53;6.80;;;19.60;80.60;;;;;;5038450;28;20201;-81
2021/07/22 00:17:20;;;;;;;13.30;7.30;;;19.50;80.90;;;;;;5038327;28;20184;-81
2021/07/22 00:19:46;;;;;;;11.40;7.30;;;19.50;80.90;;;;;;5038594;28;20924;-81
2021/07/22 00:22:12;;;;;;;17.13;7.57;;;19.50;81.30;;;;;;5038151;28;20958;-82
2021/07/22 00:24:37;;;;;;;18.57;7.37;;;19.40;81.60;;;;;;5040964;28;20169;-81
2021/07/22 00:27:03;;;;;;;13.47;6.63;;;19.40;81.30;;;;;;5040769;28;20173;-81
2021/07/22 00:29:32;;;;;;;14.98;7.82;;;19.40;81.90;;;;;;5041365;28;20173;-81
2021/07/22 00:31:59;;;;;;;11.90;7.25;;;19.30;82.10;;;;;;5041568;28;20197;-81
2021/07/22 00:34:25;;;;;;;14.25;6.63;;;19.30;82.70;;;;;;5041757;28;20232;-80
2021/07/22 00:36:51;;;;;;;13.70;6.67;;;19.30;82.40;;;;;;5042820;28;20166;-81
2021/07/22 00:39:17;;;;;;;10.40;6.70;;;19.20;82.60;;;;;;5041700;28;20415;-81
2021/07/22 00:41:43;;;;;;;11.02;6.95;;;19.20;83.10;;;;;;5041693;28;20411;-82
2021/07/22 00:44:09;;;;;;;11.25;6.60;;;19.20;83.00;;;;;;5041473;28;20237;-81
2021/07/22 00:46:35;;;;;;;12.63;7.20;;;19.20;83.10;;;;;;5041758;28;20245;-80
2021/07/22 00:49:01;;;;;;;12.13;7.30;;;19.10;83.40;;;;;;5041685;28;20204;-81
2021/07/22 00:51:26;;;;;;;12.73;7.40;;;19.10;83.40;;;;;;5059005;28;20180;-81
2021/07/22 00:53:52;;;;;;;12.57;6.77;;;19.10;83.70;;;;;;5041155;28;20243;-80
2021/07/22 00:56:18;;;;;;;13.33;7.00;;;19.10;83.40;;;;;;5041137;28;20173;-82
2021/07/22 00:58:44;;;;;;;16.10;6.93;;;19.10;83.80;;;;;;5040971;28;20177;-81
2021/07/22 01:01:10;;;;;;;14.10;7.68;;;19.00;83.90;;;;;;5041104;28;20169;-81
2021/07/22 01:03:36;;;;;;;15.10;7.10;;;19.00;84.50;;;;;;5041728;28;20239;-81
2021/07/22 01:06:02;;;;;;;15.27;7.80;;;19.00;84.50;;;;;;5041812;28;20649;-81
2021/07/22 01:08:28;;;;;;;18.73;7.97;;;19.00;84.60;;;;;;5041427;28;20205;-81
2021/07/22 01:10:54;;;;;;;14.50;7.73;;;19.00;85.10;;;;;;5040648;28;20521;-81
2021/07/22 01:13:19;;;;;;;12.90;7.70;;;18.90;84.80;;;;;;5039999;28;20543;-82
2021/07/22 01:15:45;;;;;;;25.00;8.00;;;18.90;85.10;;;;;;5040784;28;20200;-81
2021/07/22 01:18:11;;;;;;;17.47;7.90;;;18.80;84.90;;;;;;5040228;28;20173;-81
2021/07/22 01:20:36;;;;;;;16.70;7.83;;;18.80;85.30;;;;;;5040194;28;20418;-80
2021/07/22 01:23:02;;;;;;;17.57;8.07;;;18.70;85.20;;;;;;5040518;28;20205;-80
2021/07/22 01:25:29;;;;;;;17.83;8.23;;;18.70;85.60;;;;;;5040245;28;20218;-80
2021/07/22 01:27:56;;;;;;;14.07;7.05;;;18.70;85.80;;;;;;5039839;28;20431;-81
2021/07/22 01:30:22;;;;;;;19.42;7.18;;;18.60;85.80;;;;;;5040365;28;20177;-80
2021/07/22 01:32:48;;;;;;;18.33;8.00;;;18.50;86.30;;;;;;5040350;28;20761;-81
2021/07/22 01:35:14;;;;;;;16.03;7.83;;;18.50;86.60;;;;;;5039245;28;20726;-81
2021/07/22 01:37:44;;;;;;;12.98;7.35;;;18.50;86.60;;;;;;5039603;28;20404;-81
2021/07/22 01:40:13;;;;;;;15.65;7.78;;;18.50;87.00;;;;;;5040252;28;20181;-82
2021/07/22 01:42:39;;;;;;;16.33;8.52;;;18.50;87.30;;;;;;5039845;28;20197;-82
2021/07/22 01:45:07;;;;;;;15.23;7.43;;;18.40;87.80;;;;;;5040259;28;20286;-81
2021/07/22 01:47:34;;;;;;;12.38;7.65;;;18.40;87.80;;;;;;5040532;28;20751;-82
2021/07/22 01:50:00;;;;;;;12.57;7.22;;;18.40;88.10;;;;;;5040284;28;20649;-81
2021/07/22 01:52:26;;;;;;;17.02;7.80;;;18.40;88.10;;;;;;5039348;28;20249;-81
2021/07/22 01:54:52;;;;;;;15.67;8.10;;;18.30;88.50;;;;;;5039463;28;20197;-81
2021/07/22 01:57:17;;;;;;;14.30;7.77;;;18.30;88.50;;;;;;5039160;28;20923;-82
2021/07/22 01:59:43;;;;;;;18.03;8.80;;;18.30;88.40;;;;;;5039947;28;20966;-80
2021/07/22 02:02:10;;;;;;;13.63;7.80;;;18.30;88.90;;;;;;5039317;28;20431;-80
2021/07/22 02:04:37;;;;;;;13.85;7.38;;;18.30;88.90;;;;;;5039796;28;20181;-81
2021/07/22 02:07:03;;;;;;;16.15;7.13;;;18.20;89.10;;;;;;5038920;28;20226;-80
2021/07/22 02:09:29;;;;;;;17.08;8.50;;;18.20;89.20;;;;;;5039350;28;20177;-80
2021/07/22 02:11:57;;;;;;;14.30;7.23;;;18.10;89.20;;;;;;5039360;28;20619;-81
2021/07/22 02:14:23;;;;;;;15.23;8.88;;;18.10;89.50;;;;;;5039673;28;20447;-81
2021/07/22 02:16:49;;;;;;;14.77;7.85;;;18.10;89.80;;;;;;5040275;28;20680;-82
2021/07/22 02:19:15;;;;;;;16.47;8.03;;;18.00;89.90;;;;;;5040350;28;20174;-80
2021/07/22 02:21:42;;;;;;;14.43;7.57;;;18.00;89.90;;;;;;5039627;28;20212;-81
2021/07/22 02:24:08;;;;;;;17.77;8.10;;;18.00;90.10;;;;;;5039645;28;20181;-80
2021/07/22 02:26:34;;;;;;;20.10;8.20;;;17.90;90.20;;;;;;5039989;28;20177;-81
2021/07/22 02:29:01;;;;;;;20.17;9.00;;;17.90;90.50;;;;;;5040138;28;20259;-81
2021/07/22 02:31:27;;;;;;;27.15;9.20;;;17.90;90.20;;;;;;5040195;28;20534;-81
2021/07/22 02:33:53;;;;;;;17.85;8.98;;;17.90;90.40;;;;;;5039610;28;20208;-81
2021/07/22 02:36:19;;;;;;;16.15;8.65;;;17.90;90.70;;;;;;5038699;28;20169;-81
2021/07/22 02:38:45;;;;;;;18.50;10.00;;;17.90;90.70;;;;;;5039178;28;20184;-80
2021/07/22 02:41:11;;;;;;;15.00;8.80;;;17.80;90.80;;;;;;5039219;28;20280;-81
2021/07/22 02:43:37;;;;;;;25.70;11.10;;;17.90;90.90;;;;;;5038821;28;20193;-81
2021/07/22 02:46:10;;;;;;;18.87;9.37;;;17.90;91.10;;;;;;5038060;28;20176;-81
2021/07/22 02:48:36;;;;;;;18.92;9.88;;;17.80;91.40;;;;;;5038142;28;20957;-81
2021/07/22 02:51:06;;;;;;;19.00;9.23;;;17.80;91.50;;;;;;5038085;28;20169;-81
2021/07/22 02:53:34;;;;;;;18.70;8.95;;;17.70;91.70;;;;;;5037201;28;20522;-80
2021/07/22 02:56:01;;;;;;;23.63;8.65;;;17.60;91.80;;;;;;5038090;28;20560;-82
2021/07/22 02:58:27;;;;;;;21.38;9.43;;;17.60;92.10;;;;;;5037913;28;20629;-80
2021/07/22 03:00:54;;;;;;;19.27;9.38;;;17.60;92.20;;;;;;5038466;28;20177;-81
2021/07/22 03:03:20;;;;;;;19.25;8.73;;;17.60;92.20;;;;;;5038415;28;20276;-81
2021/07/22 03:05:45;;;;;;;15.10;9.00;;;17.50;92.10;;;;;;5037786;28;20581;-81
2021/07/22 03:08:11;;;;;;;17.97;9.30;;;17.50;92.20;;;;;;5037590;28;20943;-81
2021/07/22 03:10:37;;;;;;;17.70;8.60;;;17.50;92.00;;;;;;5038006;28;20176;-81
2021/07/22 03:13:03;;;;;;;17.42;8.75;;;17.50;91.90;;;;;;5037605;28;20477;-80
2021/07/22 03:15:30;;;;;;;17.48;8.57;;;17.50;92.30;;;;;;5037615;28;20292;-80
2021/07/22 03:17:56;;;;;;;13.68;8.00;;;17.50;91.90;;;;;;5038099;28;20180;-80
2021/07/22 03:20:22;;;;;;;17.42;9.82;;;17.50;91.90;;;;;;5038490;28;20177;-80
2021/07/22 03:22:48;;;;;;;17.92;8.20;;;17.50;92.40;;;;;;5037551;28;20212;-80
2021/07/22 03:25:14;;;;;;;23.63;10.37;;;17.50;92.60;;;;;;5038322;28;20200;-80
2021/07/22 03:27:39;;;;;;;21.97;10.00;;;17.50;92.80;;;;;;5037755;28;20418;-80
2021/07/22 03:30:06;;;;;;;20.47;9.67;;;17.40;92.80;;;;;;5038181;28;20416;-80
2021/07/22 03:32:32;;;;;;;16.98;8.40;;;17.40;92.70;;;;;;5037584;28;20954;-81
2021/07/22 03:34:57;;;;;;;15.95;9.15;;;17.30;92.60;;;;;;5037501;28;20262;-80
2021/07/22 03:37:23;;;;;;;15.90;8.53;;;17.30;92.60;;;;;;5039356;28;20271;-80
2021/07/22 03:39:49;;;;;;;20.00;9.93;;;17.30;92.80;;;;;;5038810;28;20665;-80
2021/07/22 03:42:15;;;;;;;17.77;9.13;;;17.30;93.30;;;;;;5038194;28;20618;-80
2021/07/22 03:44:40;;;;;;;20.00;8.80;;;17.30;93.50;;;;;;5038054;28;20426;-81
2021/07/22 03:47:06;;;;;;;17.43;8.20;;;17.20;93.50;;;;;;5037807;28;20199;-80
2021/07/22 03:49:33;;;;;;;18.97;8.70;;;17.20;93.30;;;;;;5037415;28;20311;-81
2021/07/22 03:51:59;;;;;;;16.70;9.63;;;17.20;93.50;;;;;;5037484;28;20661;-81
2021/07/22 03:54:25;;;;;;;18.20;9.70;;;17.20;93.40;;;;;;5037341;28;20347;-80
2021/07/22 03:56:51;;;;;;;22.23;9.07;;;17.20;93.60;;;;;;5037142;28;20503;-80
2021/07/22 03:59:17;;;;;;;17.00;8.97;;;17.20;93.80;;;;;;5039045;28;20633;-79
2021/07/22 04:01:43;;;;;;;20.40;8.85;;;17.20;94.00;;;;;;5041290;28;20718;-79
2021/07/22 04:04:10;;;;;;;25.63;10.10;;;17.20;94.00;;;;;;5041402;28;20179;-80
2021/07/22 04:06:40;;;;;;;21.42;10.00;;;17.20;94.20;;;;;;5040693;28;20503;-80
2021/07/22 04:09:06;;;;;;;20.10;11.10;;;17.20;94.10;;;;;;5041376;28;20453;-80
2021/07/22 04:11:34;;;;;;;19.80;9.15;;;17.20;94.20;;;;;;5041398;28;20181;-79
2021/07/22 04:14:00;;;;;;;19.20;9.60;;;17.20;94.30;;;;;;5041250;28;20693;-79
2021/07/22 04:16:26;;;;;;;21.47;10.13;;;17.20;94.10;;;;;;5041298;28;20173;-81
2021/07/22 04:18:52;;;;;;;20.87;9.47;;;17.20;94.20;;;;;;5040642;28;20173;-82
2021/07/22 04:21:17;;;;;;;56.20;11.70;;;17.20;94.00;;;;;;5040961;28;20177;-81
2021/07/22 04:23:43;;;;;;;19.60;9.80;;;17.20;94.00;;;;;;5041199;28;20193;-80
2021/07/22 04:26:16;;;;;;;17.70;9.30;;;17.20;93.90;;;;;;5040881;28;20180;-80
2021/07/22 04:28:42;;;;;;;25.95;9.20;;;17.30;93.90;;;;;;5040781;28;20644;-81
2021/07/22 04:31:08;;;;;;;21.17;10.55;;;17.30;93.80;;;;;;5041063;28;20180;-81
2021/07/22 04:33:34;;;;;;;23.83;10.23;;;17.30;93.90;;;;;;5040350;28;20373;-81
2021/07/22 04:36:00;;;;;;;20.33;10.53;;;17.30;93.90;;;;;;5041098;28;20428;-81
2021/07/22 04:38:25;;;;;;;24.70;9.07;;;17.40;93.90;;;;;;5041432;28;20173;-81
2021/07/22 04:40:51;;;;;;;18.30;8.80;;;17.40;93.80;;;;;;5040570;28;20172;-81
2021/07/22 04:43:17;;;;;;;17.00;8.90;;;17.50;93.60;;;;;;5040840;28;20193;-80
2021/07/22 04:45:42;;;;;;;20.10;10.20;;;17.50;94.00;;;;;;5040368;28;20998;-81
2021/07/22 04:48:08;;;;;;;25.53;12.00;;;17.50;94.30;;;;;;5040403;28;20180;-81
2021/07/22 04:50:34;;;;;;;24.00;10.47;;;17.50;94.30;;;;;;5040453;28;20255;-81
2021/07/22 04:53:00;;;;;;;22.20;9.90;;;17.50;93.80;;;;;;5040937;28;20247;-81
2021/07/22 04:55:26;;;;;;;27.65;11.38;;;17.60;93.70;;;;;;5040676;28;20197;-81
2021/07/22 04:58:02;;;;;;;31.40;12.27;;;17.60;93.90;;;;;;5041140;28;20172;-82
2021/07/22 05:00:28;;;;;;;29.15;12.60;;;17.70;93.60;;;;;;5041064;28;20428;-82
2021/07/22 05:02:58;;;;;;;34.57;11.40;;;17.70;93.40;;;;;;5041421;28;20278;-82
2021/07/22 05:05:28;;;;;;;24.80;11.98;;;17.70;93.50;;;;;;5041439;28;20511;-82
2021/07/22 05:07:54;;;;;;;22.00;10.50;;;17.80;93.50;;;;;;5041559;28;20170;-83
2021/07/22 05:10:20;;;;;;;21.52;10.90;;;17.80;93.30;;;;;;5040190;28;20534;-83
2021/07/22 05:12:46;;;;;;;29.65;12.25;;;17.80;93.40;;;;;;5040640;28;20679;-81
2021/07/22 05:15:12;;;;;;;26.33;11.23;;;17.90;93.10;;;;;;5040508;28;20193;-82
2021/07/22 05:17:38;;;;;;;25.05;12.02;;;17.90;93.00;;;;;;5040760;28;20703;-82
2021/07/22 05:20:05;;;;;;;22.77;10.52;;;18.00;93.00;;;;;;5040510;28;20165;-81
2021/07/22 05:22:32;;;;;;;28.15;13.43;;;18.00;93.10;;;;;;5039580;28;20216;-81
2021/07/22 05:24:57;;;;;;;25.25;12.05;;;18.10;92.50;;;;;;5042018;28;20177;-83
2021/07/22 05:27:24;;;;;;;31.13;12.87;;;18.20;92.50;;;;;;5041356;28;20180;-82
2021/07/22 05:29:50;;;;;;;25.30;13.38;;;18.20;92.40;;;;;;5040801;28;20696;-83
2021/07/22 05:32:16;;;;;;;31.27;12.80;;;18.30;92.30;;;;;;5040228;28;20291;-83
2021/07/22 05:34:41;;;;;;;26.70;12.88;;;18.30;92.10;;;;;;5041812;28;20457;-83
2021/07/22 05:37:07;;;;;;;34.20;13.30;;;18.30;92.20;;;;;;5041724;28;20685;-83
2021/07/22 05:39:34;;;;;;;26.60;13.57;;;18.30;92.10;;;;;;5040976;28;20165;-83
2021/07/22 05:42:00;;;;;;;25.10;12.15;;;18.40;91.90;;;;;;5041133;28;20424;-83
2021/07/22 05:44:26;;;;;;;25.63;13.40;;;18.40;91.80;;;;;;5040963;28;20349;-83
2021/07/22 05:46:51;;;;;;;26.43;13.00;;;18.50;91.80;;;;;;5041056;28;20184;-84
2021/07/22 05:49:17;;;;;;;38.10;13.83;;;18.60;91.60;;;;;;5040191;28;20428;-83
2021/07/22 05:51:43;;;;;;;25.97;12.43;;;18.60;91.30;;;;;;5040266;28;20177;-84
2021/07/22 05:54:12;;;;;;;31.73;14.10;;;18.60;91.10;;;;;;5041276;28;20207;-83
2021/07/22 05:56:38;;;;;;;32.75;12.75;;;18.60;91.10;;;;;;5040811;28;20169;-83
2021/07/22 05:59:04;;;;;;;29.13;13.37;;;18.70;91.10;;;;;;5040433;28;20178;-83
2021/07/22 06:01:33;;;;;;;30.00;14.03;;;18.70;91.30;;;;;;5041147;28;20641;-83
2021/07/22 06:03:58;;;;;;;29.45;13.70;;;18.80;90.50;;;;;;5041025;28;20211;-83
2021/07/22 06:06:24;;;;;;;32.80;13.37;;;18.80;91.10;;;;;;5040774;28;20181;-83
2021/07/22 06:08:50;;;;;;;37.77;13.53;;;18.90;91.00;;;;;;5040724;28;20180;-83
2021/07/22 06:11:16;;;;;;;37.10;14.40;;;18.90;90.20;;;;;;5040709;28;20173;-83
2021/07/22 06:13:42;;;;;;;29.08;15.65;;;19.00;90.40;;;;;;5040503;28;20283;-83
2021/07/22 06:16:13;;;;;;;34.15;15.25;;;19.10;89.80;;;;;;5040425;28;20173;-83
2021/07/22 06:18:42;;;;;;;32.92;14.95;;;19.30;88.90;;;;;;5023081;28;20280;-83
2021/07/22 06:21:12;;;;;;;34.83;14.00;;;19.40;88.00;;;;;;5038495;28;20668;-83
2021/07/22 06:23:38;;;;;;;30.17;14.52;;;19.50;86.90;;;;;;5039605;28;20355;-83
2021/07/22 06:26:04;;;;;;;30.83;12.97;;;19.60;86.60;;;;;;5039580;28;20244;-83
2021/07/22 06:28:30;;;;;;;30.13;13.73;;;19.60;86.40;;;;;;5039101;28;20427;-83
2021/07/22 06:30:56;;;;;;;39.13;13.93;;;19.70;86.30;;;;;;5040018;28;20169;-83
2021/07/22 06:33:22;;;;;;;27.80;14.50;;;19.90;85.20;;;;;;5040402;28;20196;-84
2021/07/22 06:35:49;;;;;;;32.53;13.57;;;20.00;85.50;;;;;;5039840;28;20462;-83
2021/07/22 06:38:15;;;;;;;34.30;14.07;;;20.10;85.30;;;;;;5039944;28;20566;-83
2021/07/22 06:40:42;;;;;;;33.38;14.43;;;20.20;84.20;;;;;;5039602;28;20165;-83
2021/07/22 06:43:08;;;;;;;33.92;12.88;;;20.20;85.10;;;;;;5039594;28;20261;-84
2021/07/22 06:45:35;;;;;;;33.17;15.15;;;20.30;84.50;;;;;;5039918;28;20524;-83
2021/07/22 06:48:04;;;;;;;36.78;15.00;;;20.40;83.10;;;;;;5040172;28;20169;-83
2021/07/22 06:50:30;;;;;;;26.63;12.90;;;20.40;82.70;;;;;;5039229;28;20269;-83
2021/07/22 06:52:56;;;;;;;30.90;13.93;;;20.40;83.00;;;;;;5039647;28;20284;-83
2021/07/22 06:55:21;;;;;;;40.93;15.93;;;20.50;82.30;;;;;;5039481;28;20461;-83
2021/07/22 06:57:50;;;;;;;27.80;14.20;;;20.60;81.90;;;;;;5039087;28;20233;-83
2021/07/22 07:00:16;;;;;;;34.53;13.63;;;20.60;81.90;;;;;;5039392;28;20170;-83
2021/07/22 07:02:42;;;;;;;36.00;14.50;;;20.70;81.30;;;;;;5039357;28;20211;-83
2021/07/22 07:05:08;;;;;;;33.10;13.13;;;20.80;80.80;;;;;;5038521;28;20899;-83
2021/07/22 07:07:34;;;;;;;26.55;13.30;;;20.90;80.80;;;;;;5038376;28;20641;-83
2021/07/22 07:10:00;;;;;;;25.98;11.63;;;20.90;80.20;;;;;;5039203;28;20235;-83
2021/07/22 07:12:26;;;;;;;29.67;13.63;;;21.10;79.40;;;;;;5039241;28;20193;-83
2021/07/22 07:14:52;;;;;;;22.03;11.40;;;21.20;77.00;;;;;;5039622;28;20462;-83
2021/07/22 07:17:17;;;;;;;28.80;9.87;;;21.40;77.10;;;;;;5039034;28;20438;-83
2021/07/22 07:19:44;;;;;;;24.60;11.83;;;21.60;74.50;;;;;;5039260;28;20177;-83
2021/07/22 07:22:09;;;;;;;19.65;10.02;;;21.80;74.20;;;;;;5038638;28;20451;-83
2021/07/22 07:24:35;;;;;;;16.87;8.83;;;21.90;74.20;;;;;;5038280;28;20180;-82
2021/07/22 07:27:01;;;;;;;17.20;8.90;;;22.10;73.80;;;;;;5038046;28;20169;-82
2021/07/22 07:29:27;;;;;;;21.00;10.05;;;22.30;71.90;;;;;;5038259;28;20776;-82
2021/07/22 07:31:58;;;;;;;19.20;10.53;;;22.40;71.60;;;;;;5038619;28;20199;-82
2021/07/22 07:34:24;;;;;;;18.88;8.70;;;22.50;70.10;;;;;;5042495;28;20231;-82
2021/07/22 07:36:49;;;;;;;19.87;9.70;;;22.60;70.80;;;;;;5042924;28;20168;-82
2021/07/22 07:39:16;;;;;;;25.33;9.30;;;22.70;70.30;;;;;;5043242;28;20173;-82
2021/07/22 07:41:42;;;;;;;22.90;9.60;;;22.90;70.30;;;;;;5042251;28;20180;-82
2021/07/22 07:44:08;;;;;;;25.83;11.02;;;22.90;68.30;;;;;;5042311;28;20632;-82
2021/07/22 07:46:34;;;;;;;23.23;11.00;;;22.90;68.00;;;;;;5042382;28;20168;-82
2021/07/22 07:49:00;;;;;;;23.10;10.67;;;22.80;69.20;;;;;;5042428;28;20176;-82
2021/07/22 07:51:26;;;;;;;27.50;11.30;;;22.80;69.10;;;;;;5042222;28;20415;-82
2021/07/22 07:53:52;;;;;;;31.50;11.47;;;22.80;70.30;;;;;;5041726;28;20196;-81
2021/07/22 07:56:18;;;;;;;16.73;9.30;;;23.00;70.80;;;;;;5041752;28;20416;-83
2021/07/22 07:58:44;;;;;;;26.27;11.50;;;23.10;70.30;;;;;;5041072;28;20777;-83
2021/07/22 08:01:10;;;;;;;21.80;10.20;;;23.20;70.20;;;;;;5041247;28;20213;-83
2021/07/22 08:03:36;;;;;;;23.97;12.13;;;23.20;70.20;;;;;;5041234;28;20435;-83
2021/07/22 08:06:02;;;;;;;20.90;10.67;;;23.30;70.30;;;;;;5041276;28;20677;-83
2021/07/22 08:08:27;;;;;;;24.15;11.93;;;23.50;69.60;;;;;;5041177;28;20613;-83
2021/07/22 08:10:58;;;;;;;21.13;11.50;;;23.60;68.70;;;;;;5041304;28;20176;-82
2021/07/22 08:13:23;;;;;;;28.45;13.57;;;23.80;69.10;;;;;;5041156;28;20432;-83
2021/07/22 08:15:49;;;;;;;27.93;11.40;;;24.00;68.40;;;;;;5040849;28;20258;-83
2021/07/22 08:18:15;;;;;;;22.63;11.40;;;24.10;67.00;;;;;;5040350;28;20514;-82
2021/07/22 08:20:41;;;;;;;22.30;10.60;;;24.00;67.80;;;;;;5040916;28;20166;-82
2021/07/22 08:23:07;;;;;;;23.75;10.95;;;24.00;68.40;;;;;;5040395;28;20204;-82
2021/07/22 08:25:36;;;;;;;29.55;12.68;;;24.20;68.30;;;;;;5040458;28;20637;-81
2021/07/22 08:28:02;;;;;;;25.42;10.20;;;24.40;66.90;;;;;;5040744;28;20260;-82
2021/07/22 08:30:27;;;;;;;20.13;9.67;;;24.50;65.80;;;;;;5041190;28;20207;-82
2021/07/22 08:32:53;;;;;;;22.07;10.30;;;24.60;66.20;;;;;;5040602;28;20735;-83
2021/07/22 08:35:19;;;;;;;15.77;8.63;;;24.70;65.60;;;;;;5040155;28;20223;-83
2021/07/22 08:37:45;;;;;;;21.13;10.00;;;24.90;65.20;;;;;;5040228;28;20534;-82
2021/07/22 08:40:14;;;;;;;28.90;10.50;;;25.00;64.50;;;;;;5040142;28;20857;-81
2021/07/22 08:42:43;;;;;;;20.48;10.38;;;25.20;64.10;;;;;;5039791;28;20435;-83
2021/07/22 08:45:11;;;;;;;23.48;10.98;;;25.30;62.40;;;;;;5038904;28;20184;-83
2021/07/22 08:47:37;;;;;;;20.20;10.20;;;25.30;63.70;;;;;;5039320;28;20181;-82
2021/07/22 08:50:04;;;;;;;19.88;9.65;;;25.50;61.70;;;;;;5039041;28;20180;-82
2021/07/22 08:52:30;;;;;;;16.58;9.30;;;25.50;61.60;;;;;;5039375;28;20193;-83
2021/07/22 08:54:56;;;;;;;12.47;9.33;;;25.60;61.70;;;;;;5038992;28;20204;-83
2021/07/22 08:57:33;;;;;;;20.43;8.47;;;25.60;61.40;;;;;;5039694;28;20176;-82
2021/07/22 09:00:02;;;;;;;24.15;9.85;;;25.80;60.80;;;;;;5039630;28;20180;-83
2021/07/22 09:02:32;;;;;;;13.00;8.30;;;25.90;60.60;;;;;;5039832;28;20201;-83
2021/07/22 09:05:03;;;;;;;14.40;8.60;;;26.20;60.60;;;;;;5039985;28;20189;-82
2021/07/22 09:07:30;;;;;;;15.95;8.25;;;26.40;58.30;;;;;;5040008;28;20177;-81
2021/07/22 09:10:05;;;;;;;11.48;7.45;;;26.60;57.10;;;;;;5039781;28;20173;-82
2021/07/22 09:12:49;;;;;;;12.50;7.30;;;26.60;56.20;;;;;;5039645;28;20260;-83
2021/07/22 09:15:28;;;;;;;16.42;8.70;;;26.60;56.00;;;;;;5039737;28;20197;-83
2021/07/22 09:17:54;;;;;;;24.95;8.85;;;26.50;56.40;;;;;;5039214;28;20215;-83
2021/07/22 09:20:33;;;;;;;12.32;8.02;;;26.50;56.00;;;;;;5039950;28;20242;-82
2021/07/22 09:23:03;;;;;;;12.45;7.43;;;26.70;56.60;;;;;;5039516;28;20235;-82
2021/07/22 09:25:42;;;;;;;16.67;7.53;;;26.90;55.00;;;;;;5039266;28;20173;-82
2021/07/22 09:28:16;;;;;;;15.70;7.82;;;27.10;54.60;;;;;;5039317;28;20180;-82
2021/07/22 09:30:59;;;;;;;14.77;7.78;;;27.20;54.10;;;;;;5040037;28;20173;-83
2021/07/22 09:33:39;;;;;;;13.32;7.40;;;27.30;53.20;;;;;;5039761;28;20193;-82
2021/07/22 09:36:07;;;;;;;14.27;7.80;;;27.50;53.80;;;;;;5038271;28;20180;-83
2021/07/22 09:38:33;;;;;;;19.48;7.63;;;27.70;52.80;;;;;;5039293;28;20189;-82
2021/07/22 09:40:59;;;;;;;14.70;8.10;;;27.90;52.40;;;;;;5039395;28;20220;-83
2021/07/22 09:43:39;;;;;;;13.15;7.43;;;28.10;51.60;;;;;;5039415;28;20196;-82
2021/07/22 09:46:06;;;;;;;18.20;8.60;;;28.30;52.40;;;;;;5038874;28;20536;-83
2021/07/22 09:48:32;;;;;;;10.63;6.97;;;28.50;49.20;;;;;;5039137;28;20180;-83
2021/07/22 09:50:58;;;;;;;12.63;7.50;;;28.60;49.90;;;;;;5038730;28;20698;-82
2021/07/22 09:53:27;;;;;;;9.73;6.70;;;28.80;48.10;;;;;;5039546;28;20284;-83
2021/07/22 09:55:54;;;;;;;11.00;7.38;;;28.90;48.40;;;;;;5038719;28;20246;-82
2021/07/22 09:58:21;;;;;;;16.65;7.72;;;29.10;49.40;;;;;;5039176;28;20184;-82
2021/07/22 10:00:48;;;;;;;15.95;7.35;;;29.10;50.90;;;;;;5039065;28;20235;-82
2021/07/22 10:03:15;;;;;;;12.70;6.65;;;29.20;48.20;;;;;;5040150;28;20193;-84
2021/07/22 10:06:02;;;;;;;17.48;7.70;;;29.40;47.50;;;;;;5043342;28;20177;-83
2021/07/22 10:08:30;;;;;;;15.70;8.48;;;29.60;47.30;;;;;;5039733;28;20177;-80
2021/07/22 10:10:57;;;;;;;12.20;6.60;;;29.50;46.20;;;;;;5039651;28;20184;-82
2021/07/22 10:13:32;;;;;;;13.93;8.15;;;29.40;47.50;;;;;;5039329;28;20193;-81
2021/07/22 10:16:00;;;;;;;13.15;7.38;;;29.40;47.90;;;;;;5039004;28;20340;-82
2021/07/22 10:18:27;;;;;;;12.60;6.93;;;29.50;46.70;;;;;;5038181;28;20165;-81
2021/07/22 10:20:57;;;;;;;13.07;8.50;;;29.40;47.10;;;;;;5039187;28;20173;-82
2021/07/22 10:23:23;;;;;;;13.20;7.47;;;29.50;48.60;;;;;;5039480;28;20197;-82
2021/07/22 10:25:50;;;;;;;18.58;6.68;;;29.80;49.00;;;;;;5038417;28;20207;-82
2021/07/22 10:28:17;;;;;;;10.00;5.97;;;30.00;46.70;;;;;;5038540;28;20183;-81
2021/07/22 10:30:45;;;;;;;14.00;7.13;;;30.10;46.10;;;;;;5038354;28;20638;-82
2021/07/22 10:33:12;;;;;;;11.98;6.50;;;30.30;45.80;;;;;;5038568;28;20216;-82
2021/07/22 10:35:38;;;;;;;14.30;7.78;;;30.20;45.70;;;;;;5038485;28;20283;-82
2021/07/22 10:38:14;;;;;;;13.48;7.93;;;30.20;46.20;;;;;;5038982;28;20264;-81
2021/07/22 10:40:50;;;;;;;11.52;6.95;;;29.80;45.60;;;;;;5039057;28;20203;-82
2021/07/22 10:43:38;;;;;;;10.10;6.68;;;29.60;45.70;;;;;;5038749;28;20284;-82
2021/07/22 10:46:10;;;;;;;13.65;7.15;;;29.80;46.50;;;;;;5038552;28;20169;-82
2021/07/22 10:48:36;;;;;;;10.73;5.80;;;30.00;46.20;;;;;;5038421;28;20177;-82
2021/07/22 10:51:20;;;;;;;15.30;7.50;;;30.30;47.00;;;;;;5038626;28;20176;-82
2021/07/22 10:53:50;;;;;;;15.98;8.40;;;30.50;44.90;;;;;;5038711;28;20295;-82
2021/07/22 10:56:22;;;;;;;11.20;6.70;;;30.60;45.60;;;;;;5037934;28;20200;-81
2021/07/22 10:58:52;;;;;;;18.92;8.73;;;30.60;45.70;;;;;;5038275;28;20199;-82
2021/07/22 11:01:43;;;;;;;17.58;8.48;;;30.70;46.20;;;;;;5037858;28;20181;-82
2021/07/22 11:04:10;;;;;;;12.48;7.68;;;30.90;44.90;;;;;;5037945;28;20659;-82
2021/07/22 11:06:57;;;;;;;13.13;8.23;;;31.10;44.60;;;;;;5037454;28;20216;-82
2021/07/22 11:09:49;;;;;;;12.50;7.57;;;31.00;44.10;;;;;;5037443;28;20183;-82
2021/07/22 11:12:42;;;;;;;11.60;6.88;;;31.00;44.30;;;;;;5037298;28;20564;-82
2021/07/22 11:15:16;;;;;;;11.48;7.25;;;31.00;44.60;;;;;;5036894;28;20205;-82
2021/07/22 11:17:44;;;;;;;16.40;8.15;;;31.30;44.00;;;;;;5036678;28;20172;-81
2021/07/22 11:20:19;;;;;;;13.48;8.30;;;31.60;46.10;;;;;;5037366;28;20224;-82
2021/07/22 11:22:49;;;;;;;11.35;7.38;;;31.50;42.90;;;;;;5037771;28;20243;-82
2021/07/22 11:25:16;;;;;;;37.47;8.82;;;31.50;44.10;;;;;;5037468;28;20177;-82
2021/07/22 11:27:46;;;;;;;20.98;8.45;;;31.50;44.30;;;;;;5037394;28;20176;-82
2021/07/22 11:30:19;;;;;;;16.27;8.13;;;31.60;42.90;;;;;;5038247;28;20245;-81
2021/07/22 11:32:45;;;;;;;14.32;8.65;;;31.60;41.80;;;;;;5055171;28;20292;-82
2021/07/22 11:35:12;;;;;;;15.68;8.85;;;31.40;42.00;;;;;;5037938;28;20211;-82
2021/07/22 11:37:39;;;;;;;13.65;7.90;;;31.40;44.80;;;;;;5037674;28;20192;-81
2021/07/22 11:40:11;;;;;;;11.77;7.45;;;31.60;42.80;;;;;;5037661;28;20223;-81
2021/07/22 11:42:50;;;;;;;15.95;7.85;;;31.60;43.20;;;;;;5037412;28;20487;-82
2021/07/22 11:45:16;;;;;;;17.17;7.63;;;31.80;44.40;;;;;;5037317;28;20234;-81
2021/07/22 11:47:43;;;;;;;14.23;8.30;;;32.00;43.60;;;;;;5037347;28;20212;-82
2021/07/22 11:50:09;;;;;;;14.38;8.73;;;32.10;42.20;;;;;;5037386;28;20226;-82
2021/07/22 11:52:36;;;;;;;15.23;8.55;;;32.30;41.20;;;;;;5037145;28;20228;-81
2021/07/22 11:55:12;;;;;;;14.95;8.43;;;32.40;42.70;;;;;;5037283;28;20757;-82
2021/07/22 11:57:43;;;;;;;16.05;8.82;;;32.60;42.70;;;;;;5036955;28;20335;-82
2021/07/22 12:00:20;;;;;;;15.48;8.63;;;32.80;41.90;;;;;;5037356;28;20219;-81
2021/07/22 12:02:53;;;;;;;16.33;9.23;;;32.70;40.60;;;;;;5037134;28;20196;-81
2021/07/22 12:05:26;;;;;;;14.55;8.88;;;32.60;42.40;;;;;;5037551;28;20547;-81
2021/07/22 12:07:53;;;;;;;12.55;8.23;;;32.60;40.80;;;;;;5037101;28;20176;-81
2021/07/22 12:10:26;;;;;;;12.52;8.30;;;32.40;41.50;;;;;;5036521;28;20600;-82
2021/07/22 12:12:57;;;;;;;16.58;8.68;;;32.60;43.50;;;;;;5036207;28;20189;-79
2021/07/22 12:15:23;;;;;;;16.70;8.77;;;32.60;40.80;;;;;;5037067;28;20205;-80
2021/07/22 12:17:49;;;;;;;17.23;9.30;;;32.50;44.90;;;;;;5037362;28;20178;-80
2021/07/22 12:20:15;;;;;;;15.30;8.20;;;32.50;43.90;;;;;;5039039;28;20488;-79
2021/07/22 12:22:40;;;;;;;13.63;8.25;;;32.70;42.40;;;;;;5040972;28;20216;-81
2021/07/22 12:25:06;;;;;;;14.10;8.73;;;32.70;41.60;;;;;;5040835;28;20189;-81
2021/07/22 12:27:35;;;;;;;15.00;8.20;;;32.40;42.00;;;;;;5040769;28;20188;-81
2021/07/22 12:30:07;;;;;;;13.00;7.47;;;32.20;42.80;;;;;;5041304;28;20173;-81
2021/07/22 12:32:36;;;;;;;14.40;8.20;;;32.20;44.30;;;;;;5040641;28;20200;-81
2021/07/22 12:35:03;;;;;;;16.58;8.90;;;32.20;44.10;;;;;;5040086;28;20228;-81